createdAt,value
2022-09-18T09:42:38.970Z,55.94
2022-09-18T09:47:57.268Z,53.89
2022-09-18T09:57:28.826Z,49.03
2022-09-18T10:03:13.114Z,49.62
2022-09-18T10:08:31.221Z,48.82
2022-09-18T10:13:37.943Z,49.64
2022-09-18T10:18:45.457Z,48.11
2022-09-18T10:23:58.061Z,47.19
2022-09-18T10:29:02.191Z,52.72
2022-09-18T10:34:35.426Z,50.46
2022-09-18T10:39:47.745Z,49.52
2022-09-18T10:45:01.432Z,40.99
2022-09-18T10:50:07.385Z,37.47
2022-09-18T10:55:21.644Z,43.87
2022-09-18T11:00:42.129Z,42.12
2022-09-18T11:05:59.463Z,41.99
2022-09-18T11:11:06.560Z,42.77
2022-09-18T11:16:12.251Z,46.39
2022-09-18T11:21:14.706Z,46.59
2022-09-18T11:26:29.948Z,45.18
2022-09-18T11:31:46.403Z,44.64
2022-09-18T11:36:59.022Z,45.44
2022-09-18T11:42:01.820Z,36.76
2022-09-18T11:47:30.849Z,35.16
2022-09-18T11:52:49.461Z,42.43
2022-09-18T11:58:03.070Z,37.00
2022-09-18T12:03:27.216Z,39.50
2022-09-18T12:08:34.510Z,41.54
2022-09-18T12:13:49.127Z,41.88
2022-09-18T12:19:14.898Z,41.39
2022-09-18T12:24:18.494Z,34.24
2022-09-18T12:29:26.788Z,33.90
2022-09-18T12:34:40.494Z,30.69
2022-09-18T12:40:19.009Z,33.58
2022-09-18T12:45:32.731Z,41.64
2022-09-18T12:50:56.500Z,40.13
2022-09-18T12:56:21.498Z,38.71
2022-09-18T13:01:45.238Z,42.73
2022-09-18T13:06:55.365Z,36.28
2022-09-18T13:12:08.044Z,31.04
2022-09-18T13:17:21.282Z,37.57
2022-09-18T13:22:29.824Z,31.16
2022-09-18T13:27:33.021Z,27.88
2022-09-18T13:32:37.791Z,37.86
2022-09-18T13:37:41.814Z,39.21
2022-09-18T13:42:44.250Z,33.32
2022-09-18T13:48:18.585Z,38.04
2022-09-18T13:53:43.560Z,34.50
2022-09-18T13:58:54.582Z,32.26
2022-09-18T14:03:59.334Z,34.16
2022-09-18T14:09:02.501Z,37.10
2022-09-18T14:14:12.173Z,37.80
2022-09-18T14:19:28.750Z,35.49
2022-09-18T14:24:49.020Z,34.04
2022-09-18T14:29:56.738Z,29.97
2022-09-18T14:35:28.447Z,29.13
2022-09-18T14:40:31.378Z,30.06
2022-09-18T14:45:33.665Z,27.12
2022-09-18T14:50:40.115Z,24.07
2022-09-18T14:55:54.731Z,26.96
2022-09-18T15:00:57.135Z,28.68
2022-09-18T15:06:17.264Z,29.11
2022-09-18T15:11:22.861Z,23.20
2022-09-18T15:16:28.552Z,27.69
2022-09-18T15:21:36.541Z,28.54
2022-09-18T15:26:47.650Z,25.36
2022-09-18T15:31:51.260Z,23.00
2022-09-18T15:37:02.224Z,27.75
2022-09-18T15:42:33.554Z,27.01
2022-09-18T15:47:37.325Z,29.58
2022-09-18T15:52:42.311Z,28.44
2022-09-18T15:58:02.984Z,26.24
2022-09-18T16:03:08.008Z,28.85
2022-09-18T16:08:19.141Z,26.71
2022-09-18T16:13:22.061Z,28.04
2022-09-18T16:18:25.917Z,27.31
2022-09-18T16:23:35.217Z,28.77
2022-09-18T16:28:43.169Z,29.06
2022-09-18T16:34:02.039Z,27.78
2022-09-18T16:39:08.889Z,26.03
2022-09-18T16:44:13.010Z,24.85
2022-09-18T16:49:20.325Z,24.96
2022-09-18T16:54:22.483Z,25.18
2022-09-18T16:59:29.117Z,24.27
2022-09-18T17:04:34.105Z,24.32
2022-09-18T17:09:36.307Z,24.19
2022-09-18T17:14:38.541Z,25.33
2022-09-18T17:19:41.560Z,24.23
2022-09-18T17:24:44.107Z,24.62
2022-09-18T17:29:46.316Z,25.08
2022-09-18T17:34:48.609Z,25.69
2022-09-18T17:39:50.816Z,25.99
2022-09-18T17:44:53.161Z,26.83
2022-09-18T17:49:56.953Z,26.49
2022-09-18T17:55:00.297Z,27.92
2022-09-18T18:00:05.784Z,29.31
2022-09-18T18:05:15.055Z,33.90
2022-09-18T18:10:17.285Z,33.01
2022-09-18T18:15:19.691Z,31.80
2022-09-18T18:20:21.893Z,31.86
2022-09-18T18:25:24.111Z,32.28
2022-09-18T18:30:31.324Z,32.30
2022-09-18T18:35:35.068Z,33.23
2022-09-18T18:40:38.927Z,32.14
2022-09-18T18:45:53.222Z,32.49
2022-09-18T18:50:59.609Z,32.23
2022-09-18T18:56:07.273Z,33.43
2022-09-18T19:01:18.361Z,34.17
2022-09-18T19:06:21.344Z,33.37
2022-09-18T19:11:23.620Z,33.18
2022-09-18T19:16:30.064Z,33.72
2022-09-18T19:21:32.340Z,35.18
2022-09-18T19:26:35.761Z,34.53
2022-09-18T19:31:40.124Z,34.62
2022-09-18T19:36:44.244Z,35.81
2022-09-18T19:42:03.413Z,37.24
2022-09-18T19:47:41.135Z,37.15
2022-09-18T19:52:45.984Z,37.76
2022-09-18T19:57:53.257Z,37.84
2022-09-18T20:02:59.028Z,37.06
2022-09-18T20:08:01.638Z,38.16
2022-09-18T20:13:04.795Z,40.33
2022-09-18T20:18:07.612Z,38.93
2022-09-18T20:23:10.524Z,38.87
2022-09-18T20:28:12.676Z,37.17
2022-09-18T20:33:15.345Z,37.68
2022-09-18T20:38:17.516Z,38.79
2022-09-18T20:43:20.309Z,39.32
2022-09-18T20:48:25.665Z,39.83
2022-09-18T20:53:28.386Z,38.32
2022-09-18T20:58:34.215Z,37.60
2022-09-18T21:03:36.451Z,38.01
2022-09-18T21:08:43.056Z,38.05
2022-09-18T21:13:49.235Z,37.62
2022-09-18T21:18:53.597Z,38.06
2022-09-18T21:24:02.355Z,38.08
2022-09-18T21:29:04.561Z,38.80
2022-09-18T21:34:07.298Z,38.10
2022-09-18T21:39:11.064Z,39.49
2022-09-18T21:44:21.694Z,39.33
2022-09-18T21:49:24.089Z,37.93
2022-09-18T21:54:27.341Z,37.83
2022-09-18T21:59:31.346Z,39.94
2022-09-18T22:04:34.077Z,41.92
2022-09-18T22:09:39.304Z,40.60
2022-09-18T22:14:41.514Z,39.57
2022-09-18T22:19:43.801Z,38.88
2022-09-18T22:24:46.008Z,39.44
2022-09-18T22:29:48.228Z,39.00
2022-09-18T22:34:52.725Z,38.48
2022-09-18T22:39:55.830Z,38.25
2022-09-18T22:44:58.070Z,40.02
2022-09-18T22:50:00.245Z,39.40
2022-09-18T22:55:02.849Z,38.75
2022-09-18T23:00:06.259Z,39.29
2022-09-18T23:05:08.765Z,39.33
2022-09-18T23:10:12.277Z,38.84
2022-09-18T23:15:14.535Z,38.47
2022-09-18T23:20:17.457Z,38.09
2022-09-18T23:25:19.627Z,38.28
2022-09-18T23:30:21.825Z,39.81
2022-09-18T23:35:24.038Z,38.97
2022-09-18T23:40:26.210Z,38.93
2022-09-18T23:45:28.431Z,39.21
2022-09-18T23:50:31.147Z,38.33
2022-09-18T23:55:33.302Z,39.02
